Main page
METAR-TAF:

METAR-TAF

Airports :

New Delhi, India

Indira Gandhi International Airport

latitude: 28-34N, longitude: 077-07E, elevation: 220 m

Current weather observation

The report was made 31 minutes ago, at 07:00 UTC
Wind 8 kt from the Northwest with gusts up to 18 kt
Temperature 34°C
Humidity 14%
Pressure 1009 hPa
Visibility: 3500 m
haze

METAR: VIDP 230700Z 32008G18KT 3500 HZ NSC 34/03 Q1009 NOSIG

Time: 13:01 (07:31 UTC)

Forecast

The report was made 2 hours and 31 minutes ago, at 05:00 UTC
Forecast valid from 23 at 06 UTC to 24 at 12 UTC
Wind 10 kt from the Northwest with gusts up to 20 kt
Visibility: 2500 m
Blowing dust
Becoming
from 23 at 12 UTC to 23 at 14 UTC
Wind 8 kt from the West/Northwest
Visibility: 3500 m
haze
Becoming
from 23 at 06 UTC to 23 at 08 UTC
Wind 10 kt from the West/Northwest with gusts up to 20 kt
Visibility: 2500 m
Blowing dust

TAF: VIDP 230500Z 2306/2412 32010G20KT 2500 BLDU NSC BECMG 2312/2314 30008KT 3500 HZ BECMG 2306/2308 30010G20KT 2500 BLDU

Weather observations and forecasts of more than 4000 airports (METAR and TAF reports).

The available stations are represented by yellow and red dots on the map.

Hover mouse over dot to see the name of the station.

Then click to see weather observations and forecasts.

To change the map : click on the green buttons with a black cross to zoom in, on the green button with a dash to zoom out, or on the green arrows for adjacent maps.


METAR-TAF: